sensor_id;sensor_type;location;lat;lon;timestamp;temperature;humidity
4090;DHT22;2059;48.538;12.146;2023-01-10T00:02:16;6.00;99.90
4090;DHT22;2059;48.538;12.146;2023-01-10T00:07:18;6.10;99.90
4090;DHT22;2059;48.538;12.146;2023-01-10T00:12:21;6.10;99.90
4090;DHT22;2059;48.538;12.146;2023-01-10T00:17:41;6.10;99.90
4090;DHT22;2059;48.538;12.146;2023-01-10T00:22:42;6.20;99.90
4090;DHT22;2059;48.538;12.146;2023-01-10T00:27:46;6.40;99.90
4090;DHT22;2059;48.538;12.146;2023-01-10T00:32:54;6.00;99.90
4090;DHT22;2059;48.538;12.146;2023-01-10T00:37:56;6.00;99.90
4090;DHT22;2059;48.538;12.146;2023-01-10T00:43:02;5.90;99.90
4090;DHT22;2059;48.538;12.146;2023-01-10T00:48:21;5.80;99.90
4090;DHT22;2059;48.538;12.146;2023-01-10T00:53:23;5.90;99.90
4090;DHT22;2059;48.538;12.146;2023-01-10T00:58:26;6.10;99.90
4090;DHT22;2059;48.538;12.146;2023-01-10T01:03:28;5.70;99.90
4090;DHT22;2059;48.538;12.146;2023-01-10T01:08:30;5.60;99.90
4090;DHT22;2059;48.538;12.146;2023-01-10T01:13:33;5.80;99.90
4090;DHT22;2059;48.538;12.146;2023-01-10T01:18:35;5.80;99.90
4090;DHT22;2059;48.538;12.146;2023-01-10T01:23:37;6.00;99.90
4090;DHT22;2059;48.538;12.146;2023-01-10T01:28:40;6.00;99.90
4090;DHT22;2059;48.538;12.146;2023-01-10T01:33:42;5.80;99.90
4090;DHT22;2059;48.538;12.146;2023-01-10T01:38:43;6.00;99.90
4090;DHT22;2059;48.538;12.146;2023-01-10T01:43:58;6.30;99.90
4090;DHT22;2059;48.538;12.146;2023-01-10T01:49:02;6.10;99.90
4090;DHT22;2059;48.538;12.146;2023-01-10T01:54:06;6.10;99.90
4090;DHT22;2059;48.538;12.146;2023-01-10T01:59:14;5.90;99.90
4090;DHT22;2059;48.538;12.146;2023-01-10T02:04:19;6.00;99.90
4090;DHT22;2059;48.538;12.146;2023-01-10T02:09:26;6.30;99.90
4090;DHT22;2059;48.538;12.146;2023-01-10T02:14:31;6.70;99.90
4090;DHT22;2059;48.538;12.146;2023-01-10T02:19:45;6.50;99.90
4090;DHT22;2059;48.538;12.146;2023-01-10T02:25:25;6.40;99.90
4090;DHT22;2059;48.538;12.146;2023-01-10T02:36:18;6.40;99.90
4090;DHT22;2059;48.538;12.146;2023-01-10T02:41:27;6.20;99.90
4090;DHT22;2059;48.538;12.146;2023-01-10T02:46:30;6.10;99.90
4090;DHT22;2059;48.538;12.146;2023-01-10T02:51:34;5.60;99.90
4090;DHT22;2059;48.538;12.146;2023-01-10T02:57:11;5.50;99.90
4090;DHT22;2059;48.538;12.146;2023-01-10T03:02:23;5.90;99.90
4090;DHT22;2059;48.538;12.146;2023-01-10T03:07:32;5.70;99.90
4090;DHT22;2059;48.538;12.146;2023-01-10T03:12:40;5.70;99.90
4090;DHT22;2059;48.538;12.146;2023-01-10T03:17:45;5.60;99.90
4090;DHT22;2059;48.538;12.146;2023-01-10T03:22:49;5.80;99.90
4090;DHT22;2059;48.538;12.146;2023-01-10T03:27:58;6.10;99.90
4090;DHT22;2059;48.538;12.146;2023-01-10T03:33:03;6.30;99.90
4090;DHT22;2059;48.538;12.146;2023-01-10T03:38:08;6.40;99.90
4090;DHT22;2059;48.538;12.146;2023-01-10T03:43:16;6.10;99.90
4090;DHT22;2059;48.538;12.146;2023-01-10T03:48:38;6.20;99.90
4090;DHT22;2059;48.538;12.146;2023-01-10T03:53:43;6.20;99.90
4090;DHT22;2059;48.538;12.146;2023-01-10T03:58:45;6.20;99.90
4090;DHT22;2059;48.538;12.146;2023-01-10T04:03:46;6.30;99.90
4090;DHT22;2059;48.538;12.146;2023-01-10T04:08:50;6.10;99.90
4090;DHT22;2059;48.538;12.146;2023-01-10T04:13:51;6.10;99.90
4090;DHT22;2059;48.538;12.146;2023-01-10T04:18:53;6.20;99.90
4090;DHT22;2059;48.538;12.146;2023-01-10T04:23:56;6.20;99.90
4090;DHT22;2059;48.538;12.146;2023-01-10T04:28:58;5.80;99.90
4090;DHT22;2059;48.538;12.146;2023-01-10T04:34:00;5.80;99.90
4090;DHT22;2059;48.538;12.146;2023-01-10T04:39:03;5.90;99.90
4090;DHT22;2059;48.538;12.146;2023-01-10T04:44:05;6.20;99.90
4090;DHT22;2059;48.538;12.146;2023-01-10T04:49:08;6.10;99.90
4090;DHT22;2059;48.538;12.146;2023-01-10T04:54:11;5.90;99.90
4090;DHT22;2059;48.538;12.146;2023-01-10T04:59:13;6.00;99.90
4090;DHT22;2059;48.538;12.146;2023-01-10T05:04:14;5.90;99.90
4090;DHT22;2059;48.538;12.146;2023-01-10T05:09:17;5.90;99.90
4090;DHT22;2059;48.538;12.146;2023-01-10T05:14:19;5.90;99.90
4090;DHT22;2059;48.538;12.146;2023-01-10T05:19:21;5.60;99.90
4090;DHT22;2059;48.538;12.146;2023-01-10T05:24:24;5.80;99.90
4090;DHT22;2059;48.538;12.146;2023-01-10T05:29:26;5.80;99.90
4090;DHT22;2059;48.538;12.146;2023-01-10T05:34:28;6.10;99.90
4090;DHT22;2059;48.538;12.146;2023-01-10T05:39:31;5.80;99.90
4090;DHT22;2059;48.538;12.146;2023-01-10T05:44:32;5.90;99.90
4090;DHT22;2059;48.538;12.146;2023-01-10T05:49:34;6.10;99.90
4090;DHT22;2059;48.538;12.146;2023-01-10T05:54:37;5.90;99.90
4090;DHT22;2059;48.538;12.146;2023-01-10T05:59:40;6.00;99.90
4090;DHT22;2059;48.538;12.146;2023-01-10T06:04:42;6.10;99.90
4090;DHT22;2059;48.538;12.146;2023-01-10T06:09:45;6.30;99.90
4090;DHT22;2059;48.538;12.146;2023-01-10T06:14:47;5.90;99.90
4090;DHT22;2059;48.538;12.146;2023-01-10T06:19:48;6.00;99.90
4090;DHT22;2059;48.538;12.146;2023-01-10T06:24:53;6.00;99.90
4090;DHT22;2059;48.538;12.146;2023-01-10T06:29:54;5.60;99.90
4090;DHT22;2059;48.538;12.146;2023-01-10T06:34:56;5.50;99.90
4090;DHT22;2059;48.538;12.146;2023-01-10T06:39:59;5.50;99.90
4090;DHT22;2059;48.538;12.146;2023-01-10T06:45:01;5.40;99.90
4090;DHT22;2059;48.538;12.146;2023-01-10T06:50:05;5.50;99.90
4090;DHT22;2059;48.538;12.146;2023-01-10T06:55:09;5.40;99.90
4090;DHT22;2059;48.538;12.146;2023-01-10T07:00:11;5.50;99.90
4090;DHT22;2059;48.538;12.146;2023-01-10T07:05:13;5.30;99.90
4090;DHT22;2059;48.538;12.146;2023-01-10T07:10:16;5.40;99.90
4090;DHT22;2059;48.538;12.146;2023-01-10T07:15:18;5.60;99.90
4090;DHT22;2059;48.538;12.146;2023-01-10T07:20:19;5.60;99.90
4090;DHT22;2059;48.538;12.146;2023-01-10T07:25:23;5.60;99.90
4090;DHT22;2059;48.538;12.146;2023-01-10T07:30:25;5.80;99.90
4090;DHT22;2059;48.538;12.146;2023-01-10T07:35:26;5.80;99.90
4090;DHT22;2059;48.538;12.146;2023-01-10T07:40:29;5.80;99.90
4090;DHT22;2059;48.538;12.146;2023-01-10T07:45:31;5.70;99.90
4090;DHT22;2059;48.538;12.146;2023-01-10T07:50:34;5.70;99.90
4090;DHT22;2059;48.538;12.146;2023-01-10T07:55:38;5.80;99.90
4090;DHT22;2059;48.538;12.146;2023-01-10T08:00:39;5.80;99.90
4090;DHT22;2059;48.538;12.146;2023-01-10T08:05:41;5.90;99.90
4090;DHT22;2059;48.538;12.146;2023-01-10T08:10:44;5.90;99.90
4090;DHT22;2059;48.538;12.146;2023-01-10T08:15:46;5.80;99.90
4090;DHT22;2059;48.538;12.146;2023-01-10T08:20:50;5.90;99.90
4090;DHT22;2059;48.538;12.146;2023-01-10T08:25:53;5.60;99.90
4090;DHT22;2059;48.538;12.146;2023-01-10T08:30:55;5.70;99.90
4090;DHT22;2059;48.538;12.146;2023-01-10T08:35:57;6.10;99.90
4090;DHT22;2059;48.538;12.146;2023-01-10T08:41:00;6.00;99.90
4090;DHT22;2059;48.538;12.146;2023-01-10T08:46:01;5.90;99.90
4090;DHT22;2059;48.538;12.146;2023-01-10T08:51:05;5.80;99.90
4090;DHT22;2059;48.538;12.146;2023-01-10T08:56:09;5.70;99.90
4090;DHT22;2059;48.538;12.146;2023-01-10T09:01:10;5.80;99.90
4090;DHT22;2059;48.538;12.146;2023-01-10T09:06:13;5.70;99.90
4090;DHT22;2059;48.538;12.146;2023-01-10T09:11:16;5.90;99.90
4090;DHT22;2059;48.538;12.146;2023-01-10T09:16:18;5.90;99.90
4090;DHT22;2059;48.538;12.146;2023-01-10T09:21:20;6.00;99.90
4090;DHT22;2059;48.538;12.146;2023-01-10T09:26:23;5.90;99.90
4090;DHT22;2059;48.538;12.146;2023-01-10T09:31:25;5.90;99.90
4090;DHT22;2059;48.538;12.146;2023-01-10T09:36:26;6.00;99.90
4090;DHT22;2059;48.538;12.146;2023-01-10T09:41:54;6.00;99.90
4090;DHT22;2059;48.538;12.146;2023-01-10T09:47:00;6.40;99.90
4090;DHT22;2059;48.538;12.146;2023-01-10T09:52:06;6.00;99.90
4090;DHT22;2059;48.538;12.146;2023-01-10T09:57:16;6.00;99.90
4090;DHT22;2059;48.538;12.146;2023-01-10T10:02:24;6.50;99.90
4090;DHT22;2059;48.538;12.146;2023-01-10T10:07:27;6.70;99.90
4090;DHT22;2059;48.538;12.146;2023-01-10T10:12:38;6.70;99.90
4090;DHT22;2059;48.538;12.146;2023-01-10T10:17:45;6.60;99.90
4090;DHT22;2059;48.538;12.146;2023-01-10T10:22:56;6.30;99.90
4090;DHT22;2059;48.538;12.146;2023-01-10T10:28:15;6.20;99.90
4090;DHT22;2059;48.538;12.146;2023-01-10T10:33:40;6.10;99.90
4090;DHT22;2059;48.538;12.146;2023-01-10T10:38:46;5.90;99.90
4090;DHT22;2059;48.538;12.146;2023-01-10T10:43:51;6.10;99.90
4090;DHT22;2059;48.538;12.146;2023-01-10T10:48:57;6.10;99.90
4090;DHT22;2059;48.538;12.146;2023-01-10T10:54:00;6.20;99.90
4090;DHT22;2059;48.538;12.146;2023-01-10T10:59:03;6.60;99.90
4090;DHT22;2059;48.538;12.146;2023-01-10T11:04:07;6.50;99.90
4090;DHT22;2059;48.538;12.146;2023-01-10T11:09:10;6.60;99.90
4090;DHT22;2059;48.538;12.146;2023-01-10T11:14:15;6.50;99.90
4090;DHT22;2059;48.538;12.146;2023-01-10T11:19:36;6.80;99.90
4090;DHT22;2059;48.538;12.146;2023-01-10T11:24:43;6.80;99.90
4090;DHT22;2059;48.538;12.146;2023-01-10T11:29:55;6.80;99.90
4090;DHT22;2059;48.538;12.146;2023-01-10T11:34:59;6.90;99.90
4090;DHT22;2059;48.538;12.146;2023-01-10T11:40:18;6.60;99.90
4090;DHT22;2059;48.538;12.146;2023-01-10T11:45:27;6.30;99.90
4090;DHT22;2059;48.538;12.146;2023-01-10T11:50:33;6.50;99.90
4090;DHT22;2059;48.538;12.146;2023-01-10T11:55:36;6.20;99.90
4090;DHT22;2059;48.538;12.146;2023-01-10T12:00:43;6.20;99.90
4090;DHT22;2059;48.538;12.146;2023-01-10T12:05:51;6.30;99.90
4090;DHT22;2059;48.538;12.146;2023-01-10T12:11:02;6.50;99.90
4090;DHT22;2059;48.538;12.146;2023-01-10T12:16:17;6.70;99.90
4090;DHT22;2059;48.538;12.146;2023-01-10T12:21:24;6.90;99.90
4090;DHT22;2059;48.538;12.146;2023-01-10T12:26:27;7.10;99.90
4090;DHT22;2059;48.538;12.146;2023-01-10T12:31:35;6.80;99.90
4090;DHT22;2059;48.538;12.146;2023-01-10T12:36:47;6.60;99.90
4090;DHT22;2059;48.538;12.146;2023-01-10T12:42:01;6.90;99.50
4090;DHT22;2059;48.538;12.146;2023-01-10T12:47:29;6.90;98.90
4090;DHT22;2059;48.538;12.146;2023-01-10T12:52:36;6.80;99.00
4090;DHT22;2059;48.538;12.146;2023-01-10T12:57:46;7.20;98.90
4090;DHT22;2059;48.538;12.146;2023-01-10T13:02:52;6.70;98.20
4090;DHT22;2059;48.538;12.146;2023-01-10T13:07:58;7.10;97.80
4090;DHT22;2059;48.538;12.146;2023-01-10T13:13:04;6.90;98.00
4090;DHT22;2059;48.538;12.146;2023-01-10T13:18:16;6.80;98.10
4090;DHT22;2059;48.538;12.146;2023-01-10T13:23:25;6.90;97.90
4090;DHT22;2059;48.538;12.146;2023-01-10T13:28:31;6.90;97.50
4090;DHT22;2059;48.538;12.146;2023-01-10T13:33:48;7.00;97.70
4090;DHT22;2059;48.538;12.146;2023-01-10T13:38:53;7.40;96.80
4090;DHT22;2059;48.538;12.146;2023-01-10T13:44:02;7.20;96.60
4090;DHT22;2059;48.538;12.146;2023-01-10T13:49:42;7.20;96.70
4090;DHT22;2059;48.538;12.146;2023-01-10T13:54:54;7.50;95.80
4090;DHT22;2059;48.538;12.146;2023-01-10T14:00:00;7.00;94.90
4090;DHT22;2059;48.538;12.146;2023-01-10T14:05:21;6.80;95.10
4090;DHT22;2059;48.538;12.146;2023-01-10T14:10:23;6.90;95.40
4090;DHT22;2059;48.538;12.146;2023-01-10T14:15:27;7.00;95.90
4090;DHT22;2059;48.538;12.146;2023-01-10T14:20:34;7.40;96.00
4090;DHT22;2059;48.538;12.146;2023-01-10T14:25:37;7.50;95.90
4090;DHT22;2059;48.538;12.146;2023-01-10T14:30:39;7.60;96.00
4090;DHT22;2059;48.538;12.146;2023-01-10T14:35:44;7.20;96.60
4090;DHT22;2059;48.538;12.146;2023-01-10T14:40:49;7.20;96.60
4090;DHT22;2059;48.538;12.146;2023-01-10T14:45:56;7.10;96.60
4090;DHT22;2059;48.538;12.146;2023-01-10T14:51:16;7.20;96.70
4090;DHT22;2059;48.538;12.146;2023-01-10T14:56:21;7.20;96.60
4090;DHT22;2059;48.538;12.146;2023-01-10T15:01:25;7.10;97.00
4090;DHT22;2059;48.538;12.146;2023-01-10T15:06:29;7.00;97.20
4090;DHT22;2059;48.538;12.146;2023-01-10T15:11:51;7.10;97.00
4090;DHT22;2059;48.538;12.146;2023-01-10T15:16:56;7.10;97.00
4090;DHT22;2059;48.538;12.146;2023-01-10T15:22:03;6.90;97.30
4090;DHT22;2059;48.538;12.146;2023-01-10T15:27:16;7.20;97.20
4090;DHT22;2059;48.538;12.146;2023-01-10T15:32:22;7.30;97.00
4090;DHT22;2059;48.538;12.146;2023-01-10T15:37:28;7.30;97.10
4090;DHT22;2059;48.538;12.146;2023-01-10T15:42:33;7.00;97.50
4090;DHT22;2059;48.538;12.146;2023-01-10T15:47:38;7.00;97.50
4090;DHT22;2059;48.538;12.146;2023-01-10T15:52:48;7.10;97.60
4090;DHT22;2059;48.538;12.146;2023-01-10T15:57:50;7.10;97.80
4090;DHT22;2059;48.538;12.146;2023-01-10T16:02:52;7.10;97.90
4090;DHT22;2059;48.538;12.146;2023-01-10T16:07:57;7.50;97.50
4090;DHT22;2059;48.538;12.146;2023-01-10T16:13:08;7.20;97.60
4090;DHT22;2059;48.538;12.146;2023-01-10T16:18:30;7.20;97.60
4090;DHT22;2059;48.538;12.146;2023-01-10T16:23:34;7.00;97.60
4090;DHT22;2059;48.538;12.146;2023-01-10T16:28:37;7.30;97.60
4090;DHT22;2059;48.538;12.146;2023-01-10T16:33:38;6.80;97.60
4090;DHT22;2059;48.538;12.146;2023-01-10T16:38:43;6.70;97.90
4090;DHT22;2059;48.538;12.146;2023-01-10T16:43:45;6.70;97.70
4090;DHT22;2059;48.538;12.146;2023-01-10T16:48:48;6.70;97.90
4090;DHT22;2059;48.538;12.146;2023-01-10T16:53:53;6.80;97.50
4090;DHT22;2059;48.538;12.146;2023-01-10T16:58:56;6.90;97.70
4090;DHT22;2059;48.538;12.146;2023-01-10T17:03:59;6.90;97.90
4090;DHT22;2059;48.538;12.146;2023-01-10T17:09:02;7.10;97.80
4090;DHT22;2059;48.538;12.146;2023-01-10T17:14:04;7.20;97.80
4090;DHT22;2059;48.538;12.146;2023-01-10T17:19:07;6.90;97.90
4090;DHT22;2059;48.538;12.146;2023-01-10T17:24:10;6.70;98.40
4090;DHT22;2059;48.538;12.146;2023-01-10T17:29:12;6.70;98.40
4090;DHT22;2059;48.538;12.146;2023-01-10T17:34:15;6.70;98.80
4090;DHT22;2059;48.538;12.146;2023-01-10T17:39:18;6.80;98.10
4090;DHT22;2059;48.538;12.146;2023-01-10T17:44:20;6.50;98.30
4090;DHT22;2059;48.538;12.146;2023-01-10T17:49:22;6.30;98.60
4090;DHT22;2059;48.538;12.146;2023-01-10T17:54:25;5.90;99.10
4090;DHT22;2059;48.538;12.146;2023-01-10T17:59:27;5.90;98.90
4090;DHT22;2059;48.538;12.146;2023-01-10T18:04:29;5.90;98.80
4090;DHT22;2059;48.538;12.146;2023-01-10T18:09:32;5.70;98.90
4090;DHT22;2059;48.538;12.146;2023-01-10T18:14:34;5.70;98.80
4090;DHT22;2059;48.538;12.146;2023-01-10T18:19:36;5.60;98.80
4090;DHT22;2059;48.538;12.146;2023-01-10T18:24:39;5.40;99.00
4090;DHT22;2059;48.538;12.146;2023-01-10T18:29:41;5.20;99.30
4090;DHT22;2059;48.538;12.146;2023-01-10T18:34:43;5.30;99.00
4090;DHT22;2059;48.538;12.146;2023-01-10T18:39:47;5.30;98.90
4090;DHT22;2059;48.538;12.146;2023-01-10T18:44:49;5.40;98.90
4090;DHT22;2059;48.538;12.146;2023-01-10T18:49:51;5.20;98.80
4090;DHT22;2059;48.538;12.146;2023-01-10T18:54:54;5.00;99.30
4090;DHT22;2059;48.538;12.146;2023-01-10T18:59:55;5.00;99.40
4090;DHT22;2059;48.538;12.146;2023-01-10T19:04:58;5.10;99.30
4090;DHT22;2059;48.538;12.146;2023-01-10T19:10:01;5.00;99.50
4090;DHT22;2059;48.538;12.146;2023-01-10T19:15:03;5.10;99.30
4090;DHT22;2059;48.538;12.146;2023-01-10T19:20:06;4.90;99.30
4090;DHT22;2059;48.538;12.146;2023-01-10T19:25:10;4.80;99.50
4090;DHT22;2059;48.538;12.146;2023-01-10T19:30:12;4.60;99.40
4090;DHT22;2059;48.538;12.146;2023-01-10T19:35:13;4.40;99.80
4090;DHT22;2059;48.538;12.146;2023-01-10T19:40:17;4.60;99.40
4090;DHT22;2059;48.538;12.146;2023-01-10T19:45:19;4.70;99.30
4090;DHT22;2059;48.538;12.146;2023-01-10T19:50:20;4.60;99.30
4090;DHT22;2059;48.538;12.146;2023-01-10T19:55:23;4.60;99.20
4090;DHT22;2059;48.538;12.146;2023-01-10T20:00:27;4.30;99.80
4090;DHT22;2059;48.538;12.146;2023-01-10T20:05:29;4.40;99.50
4090;DHT22;2059;48.538;12.146;2023-01-10T20:10:35;4.40;99.50
4090;DHT22;2059;48.538;12.146;2023-01-10T20:15:36;4.50;99.40
4090;DHT22;2059;48.538;12.146;2023-01-10T20:20:38;4.30;99.60
4090;DHT22;2059;48.538;12.146;2023-01-10T20:25:41;4.20;99.50
4090;DHT22;2059;48.538;12.146;2023-01-10T20:30:43;4.20;99.40
4090;DHT22;2059;48.538;12.146;2023-01-10T20:35:54;3.80;99.90
4090;DHT22;2059;48.538;12.146;2023-01-10T20:40:58;3.80;99.90
4090;DHT22;2059;48.538;12.146;2023-01-10T20:46:04;3.90;99.90
4090;DHT22;2059;48.538;12.146;2023-01-10T20:51:08;3.70;99.90
4090;DHT22;2059;48.538;12.146;2023-01-10T20:56:14;3.60;99.90
4090;DHT22;2059;48.538;12.146;2023-01-10T21:01:16;3.40;99.90
4090;DHT22;2059;48.538;12.146;2023-01-10T21:06:19;3.30;99.90
4090;DHT22;2059;48.538;12.146;2023-01-10T21:11:22;3.10;99.90
4090;DHT22;2059;48.538;12.146;2023-01-10T21:16:24;3.20;99.90
4090;DHT22;2059;48.538;12.146;2023-01-10T21:21:26;3.50;99.90
4090;DHT22;2059;48.538;12.146;2023-01-10T21:26:29;3.40;99.90
4090;DHT22;2059;48.538;12.146;2023-01-10T21:31:30;3.50;99.90
4090;DHT22;2059;48.538;12.146;2023-01-10T21:36:32;3.30;99.90
4090;DHT22;2059;48.538;12.146;2023-01-10T21:41:35;3.00;99.90
4090;DHT22;2059;48.538;12.146;2023-01-10T21:46:54;3.10;99.90
4090;DHT22;2059;48.538;12.146;2023-01-10T21:51:56;3.40;99.90
4090;DHT22;2059;48.538;12.146;2023-01-10T21:56:59;3.10;99.90
4090;DHT22;2059;48.538;12.146;2023-01-10T22:02:02;3.50;99.90
4090;DHT22;2059;48.538;12.146;2023-01-10T22:07:04;3.50;99.90
4090;DHT22;2059;48.538;12.146;2023-01-10T22:12:08;3.60;99.90
4090;DHT22;2059;48.538;12.146;2023-01-10T22:17:10;3.50;99.90
4090;DHT22;2059;48.538;12.146;2023-01-10T22:22:12;3.60;99.90
4090;DHT22;2059;48.538;12.146;2023-01-10T22:27:16;3.50;99.90
4090;DHT22;2059;48.538;12.146;2023-01-10T22:32:19;3.60;99.90
4090;DHT22;2059;48.538;12.146;2023-01-10T22:37:20;3.80;99.90
4090;DHT22;2059;48.538;12.146;2023-01-10T22:42:24;4.00;99.60
4090;DHT22;2059;48.538;12.146;2023-01-10T22:47:26;3.80;99.70
4090;DHT22;2059;48.538;12.146;2023-01-10T22:52:28;4.10;99.50
4090;DHT22;2059;48.538;12.146;2023-01-10T22:57:31;4.00;99.40
4090;DHT22;2059;48.538;12.146;2023-01-10T23:02:33;3.60;99.90
4090;DHT22;2059;48.538;12.146;2023-01-10T23:07:35;3.30;99.90
4090;DHT22;2059;48.538;12.146;2023-01-10T23:12:38;3.40;99.90
4090;DHT22;2059;48.538;12.146;2023-01-10T23:17:40;3.60;99.90
4090;DHT22;2059;48.538;12.146;2023-01-10T23:22:42;3.70;99.90
4090;DHT22;2059;48.538;12.146;2023-01-10T23:27:45;3.20;99.90
4090;DHT22;2059;48.538;12.146;2023-01-10T23:32:47;3.20;99.90
4090;DHT22;2059;48.538;12.146;2023-01-10T23:37:50;2.70;99.90
4090;DHT22;2059;48.538;12.146;2023-01-10T23:42:54;2.70;99.90
4090;DHT22;2059;48.538;12.146;2023-01-10T23:47:56;2.90;99.90
4090;DHT22;2059;48.538;12.146;2023-01-10T23:52:58;3.10;99.90
4090;DHT22;2059;48.538;12.146;2023-01-10T23:58:02;3.10;99.90
